Time;durP1;ratioP1;P1;durP2;ratioP2;P2;SDS_P1;SDS_P2;PMS_P1;PMS_P2;Temp;Humidity;BMP_temperature;BMP_pressure;BME280_temperature;BME280_humidity;BME280_pressure;Samples;Min_cycle;Max_cycle;Signal;HPM_P1;HPM_P2
2022/05/29 00:04:56;;;;;;;0.00;0.00;;;13.70;62.30;;;12.33;49.88;99936.16;10210537;28;96836;-87
2022/05/29 00:10:06;;;;;;;0.00;0.00;;;13.60;62.60;;;12.19;50.34;99929.03;10233934;28;96617;-86
2022/05/29 00:15:12;;;;;;;0.00;0.00;;;13.50;64.00;;;12.07;51.15;99930.50;10246047;28;97706;-86
2022/05/29 00:20:15;;;;;;;0.10;0.10;;;13.30;64.50;;;11.93;51.34;99930.28;10220255;28;97427;-87
2022/05/29 00:25:18;;;;;;;0.80;0.80;;;13.20;64.40;;;11.87;52.07;99931.00;10248334;28;96960;-87
2022/05/29 00:30:21;;;;;;;0.47;0.40;;;13.10;65.50;;;11.79;52.42;99920.44;10250516;28;96430;-86
2022/05/29 00:35:25;;;;;;;0.00;0.00;;;13.10;65.70;;;11.77;52.52;99919.81;10230074;28;97205;-86
2022/05/29 00:40:36;;;;;;;0.00;0.00;;;13.00;65.70;;;11.74;52.67;99917.47;10266789;28;98390;-86
2022/05/29 00:46:04;;;;;;;0.00;0.00;;;13.00;65.80;;;11.70;52.61;99910.91;10255317;28;96764;-86
2022/05/29 00:51:12;;;;;;;0.00;0.00;;;13.00;65.60;;;11.64;52.58;99904.47;10257313;28;96588;-87
2022/05/29 00:56:17;;;;;;;0.70;0.20;;;12.90;65.80;;;11.57;52.91;99902.69;10253796;28;96804;-88
2022/05/29 01:01:20;;;;;;;0.10;0.10;;;12.90;66.40;;;11.45;52.42;99895.13;10261006;28;98471;-87
2022/05/29 01:06:23;;;;;;;0.00;0.00;;;12.70;65.00;;;11.41;52.41;99899.19;10236766;28;96649;-87
2022/05/29 01:11:37;;;;;;;0.10;0.03;;;12.70;64.90;;;11.47;52.78;99892.31;10261662;28;98722;-86
2022/05/29 01:17:42;;;;;;;0.00;0.00;;;12.80;65.00;;;11.48;52.36;99891.31;10250783;28;96602;-86
2022/05/29 01:23:36;;;;;;;0.00;0.00;;;12.80;65.10;;;11.44;52.81;99890.00;10120695;28;97300;-87
2022/05/29 01:29:05;;;;;;;0.00;0.00;;;12.80;66.40;;;11.37;52.63;99892.56;10219570;28;96769;-86
2022/05/29 01:34:26;;;;;;;0.10;0.10;;;12.70;65.70;;;11.34;52.96;99887.63;10265812;28;97013;-86
2022/05/29 01:39:32;;;;;;;0.20;0.05;;;12.60;66.40;;;11.32;53.49;99892.28;10234088;28;96570;-86
2022/05/29 01:44:47;;;;;;;0.00;0.00;;;12.60;66.50;;;11.29;53.76;99891.81;10266186;28;97205;-86
2022/05/29 01:50:11;;;;;;;0.00;0.00;;;12.60;67.20;;;11.25;53.61;99891.34;10235969;28;97265;-87
2022/05/29 01:55:36;;;;;;;0.00;0.00;;;12.60;66.20;;;11.27;53.82;99897.31;10266145;28;98313;-87
2022/05/29 02:00:39;;;;;;;0.00;0.00;;;12.60;67.10;;;11.23;53.79;99898.69;10233709;28;96789;-86
2022/05/29 02:05:50;;;;;;;0.00;0.00;;;12.60;66.50;;;11.20;53.79;99899.03;10256015;28;97666;-86
2022/05/29 02:11:07;;;;;;;0.38;0.20;;;12.50;66.90;;;11.17;54.52;99892.25;10214910;28;96712;-86
2022/05/29 02:16:46;;;;;;;0.00;0.00;;;12.50;67.80;;;11.13;54.93;99879.47;10250588;28;97386;-87
2022/05/29 02:22:23;;;;;;;0.00;0.00;;;12.50;67.60;;;11.11;54.92;99876.19;10232538;28;96663;-87
2022/05/29 02:27:52;;;;;;;0.00;0.00;;;12.50;67.80;;;11.11;55.35;99877.00;10243717;28;97558;-87
2022/05/29 02:33:21;;;;;;;0.00;0.00;;;12.40;67.80;;;11.12;55.23;99875.19;10233748;28;97514;-86
2022/05/29 02:38:48;;;;;;;0.00;0.00;;;12.50;67.50;;;11.15;54.59;99870.31;10235062;28;98444;-86
2022/05/29 02:44:16;;;;;;;0.00;0.00;;;12.50;67.50;;;11.15;55.21;99866.81;10248918;28;97030;-86
2022/05/29 02:49:31;;;;;;;1.30;0.30;;;12.50;67.70;;;11.13;54.80;99868.84;10229954;28;97260;-87
2022/05/29 02:54:34;;;;;;;0.00;0.00;;;12.50;67.70;;;11.11;54.23;99860.22;10230748;28;96734;-87
2022/05/29 02:59:47;;;;;;;0.00;0.00;;;12.50;66.80;;;11.12;53.56;99869.84;10236112;28;97303;-87
2022/05/29 03:05:03;;;;;;;0.00;0.00;;;12.40;66.90;;;11.13;53.39;99867.00;10229842;28;97268;-87
2022/05/29 03:10:19;;;;;;;0.00;0.00;;;12.50;66.10;;;11.09;53.14;99857.72;10247071;28;96643;-86
2022/05/29 03:16:09;;;;;;;0.00;0.00;;;12.40;66.40;;;11.08;53.20;99855.25;10234964;28;96609;-87
2022/05/29 03:21:41;;;;;;;0.00;0.00;;;12.30;66.00;;;11.12;53.71;99857.38;10251570;28;97500;-87
2022/05/29 03:27:29;;;;;;;0.20;0.07;;;12.40;67.00;;;11.13;54.73;99847.56;10252576;28;96557;-87
2022/05/29 03:32:35;;;;;;;0.30;0.00;;;12.40;68.70;;;11.13;54.86;99850.22;10248432;28;96577;-87
2022/05/29 03:37:40;;;;;;;0.00;0.00;;;12.40;68.10;;;11.15;55.54;99846.38;10235926;28;96917;-87
2022/05/29 03:42:43;;;;;;;3.30;0.10;;;12.50;67.10;;;11.19;56.19;99846.84;10247281;28;97000;-88
2022/05/29 03:47:46;;;;;;;0.10;0.10;;;12.50;69.70;;;11.22;56.47;99844.66;10235155;28;96736;-87
2022/05/29 03:52:50;;;;;;;0.27;0.27;;;12.60;69.90;;;11.19;56.52;99850.34;10240007;28;97328;-87
2022/05/29 03:57:53;;;;;;;0.00;0.00;;;12.50;70.00;;;11.23;57.29;99848.16;10241429;28;96773;-87
2022/05/29 04:02:56;;;;;;;0.00;0.00;;;12.60;68.80;;;11.28;57.48;99845.78;10263008;28;96659;-88
2022/05/29 04:13:21;;;;;;;0.00;0.00;;;12.60;71.50;;;11.37;57.25;99839.34;10240392;28;97433;-87
2022/05/29 04:18:24;;;;;;;0.27;0.10;;;12.70;70.30;;;11.44;57.86;99836.78;10263907;28;96600;-87
2022/05/29 04:23:27;;;;;;;0.20;0.13;;;12.70;69.30;;;11.53;56.99;99833.06;10247722;28;96497;-87
2022/05/29 04:28:30;;;;;;;1.33;0.77;;;12.80;70.10;;;11.58;56.67;99827.19;10235215;28;96532;-88
2022/05/29 04:33:33;;;;;;;0.30;0.20;;;12.80;69.50;;;11.60;56.76;99833.13;10211192;28;97932;-87
2022/05/29 04:38:37;;;;;;;0.00;0.00;;;12.90;68.80;;;11.61;57.98;99850.75;10236139;28;96740;-87
2022/05/29 04:43:40;;;;;;;0.10;0.07;;;13.00;69.00;;;11.59;60.89;99858.09;10240029;28;98281;-87
2022/05/29 04:48:43;;;;;;;0.10;0.10;;;13.00;71.30;;;11.59;62.43;99868.75;10258993;28;97001;-87
2022/05/29 04:53:46;;;;;;;0.10;0.10;;;13.00;73.20;;;11.60;62.40;99865.06;10234321;28;97258;-87
2022/05/29 04:58:49;;;;;;;0.00;0.00;;;13.00;72.70;;;11.62;61.82;99873.69;10225573;28;98149;-86
2022/05/29 05:03:52;;;;;;;0.00;0.00;;;13.00;72.90;;;11.69;61.18;99877.28;10236911;28;97111;-87
2022/05/29 05:08:55;;;;;;;0.00;0.00;;;13.10;74.20;;;11.73;60.83;99875.91;10228660;28;96930;-86
2022/05/29 05:13:58;;;;;;;0.00;0.00;;;13.10;72.70;;;11.78;59.55;99860.22;10244597;28;96806;-86
2022/05/29 05:19:02;;;;;;;0.67;0.50;;;13.20;71.80;;;11.90;59.50;99866.75;10246534;28;96753;-86
2022/05/29 05:24:06;;;;;;;0.10;0.00;;;13.30;72.20;;;11.99;58.36;99857.66;10247541;28;97348;-87
2022/05/29 05:29:09;;;;;;;0.47;0.37;;;13.30;71.60;;;12.04;58.18;99865.91;10226030;28;97266;-86
2022/05/29 05:34:12;;;;;;;0.27;0.27;;;13.40;71.40;;;12.11;57.74;99865.16;10219364;28;97450;-86
2022/05/29 05:39:15;;;;;;;0.63;0.00;;;13.30;71.10;;;12.20;57.81;99856.06;10265595;28;98313;-87
2022/05/29 05:44:23;;;;;;;0.07;0.07;;;13.50;71.50;;;12.28;56.71;99840.78;10269803;28;98073;-87
2022/05/29 05:49:26;;;;;;;0.00;0.00;;;13.50;70.70;;;12.39;55.98;99844.00;10233329;28;97945;-88
2022/05/29 05:54:32;;;;;;;0.17;0.10;;;13.60;69.80;;;12.51;55.29;99837.16;10255693;28;96484;-86
2022/05/29 05:59:37;;;;;;;0.10;0.10;;;13.70;69.20;;;12.69;56.26;99840.22;10247104;28;97502;-86
2022/05/29 06:04:43;;;;;;;0.17;0.17;;;13.90;70.30;;;12.87;53.56;99831.75;10238621;28;96650;-88
2022/05/29 06:09:47;;;;;;;0.33;0.33;;;14.00;67.10;;;13.07;53.80;99837.25;10247234;28;96774;-87
2022/05/29 06:14:50;;;;;;;0.00;0.00;;;14.30;67.50;;;13.27;53.88;99830.28;10279933;28;98098;-87
2022/05/29 06:19:53;;;;;;;0.30;0.20;;;14.50;67.90;;;13.48;52.78;99823.22;10263113;28;96696;-87
2022/05/29 06:24:56;;;;;;;0.07;0.07;;;14.70;66.90;;;13.64;51.45;99826.41;10237424;28;97017;-87
2022/05/29 06:29:59;;;;;;;0.00;0.00;;;14.90;66.30;;;13.83;50.81;99826.72;10244791;28;96856;-87
2022/05/29 06:35:07;;;;;;;0.10;0.03;;;15.10;64.90;;;14.00;51.04;99828.03;10224185;28;98361;-87
2022/05/29 06:40:13;;;;;;;0.10;0.07;;;15.20;64.50;;;14.07;48.95;99834.22;10271433;28;97203;-87
2022/05/29 06:45:16;;;;;;;0.07;0.00;;;15.30;63.90;;;14.18;50.06;99827.50;10206214;28;97555;-87
2022/05/29 06:50:19;;;;;;;0.03;0.03;;;15.50;64.30;;;14.29;49.16;99826.91;10245853;28;97839;-87
2022/05/29 06:55:21;;;;;;;0.17;0.13;;;15.60;63.70;;;14.37;48.61;99820.56;10238335;28;98208;-86
2022/05/29 07:11:16;;;;;;;0.00;0.00;;;16.00;63.10;;;14.82;49.20;99815.53;10246065;28;100272;-85
2022/05/29 07:16:20;;;;;;;0.00;0.00;;;16.10;63.30;;;14.92;48.60;99815.94;10237103;28;96880;-87
2022/05/29 07:21:24;;;;;;;0.00;0.00;;;16.20;62.70;;;15.04;48.48;99808.13;10240490;28;98988;-86
2022/05/29 07:26:27;;;;;;;0.20;0.10;;;16.30;62.50;;;15.20;47.59;99805.84;10240235;28;98396;-86
2022/05/29 07:31:30;;;;;;;0.03;0.00;;;16.40;60.60;;;15.24;47.47;99804.41;10223537;28;98571;-86
2022/05/29 07:36:33;;;;;;;0.90;0.10;;;16.50;61.30;;;15.43;47.78;99809.94;10249444;28;98192;-86
2022/05/29 07:46:59;;;;;;;0.00;0.00;;;16.80;61.80;;;15.74;47.15;99796.69;10247360;28;97120;-86
2022/05/29 07:52:02;;;;;;;0.00;0.00;;;17.00;61.40;;;15.89;46.70;99790.25;10234571;28;98138;-86
2022/05/29 07:57:05;;;;;;;0.00;0.00;;;17.10;60.90;;;15.99;45.99;99785.28;10251099;28;97150;-86
2022/05/29 08:02:08;;;;;;;0.38;0.25;;;17.20;60.30;;;16.02;44.19;99784.84;10234068;28;96696;-87
2022/05/29 08:07:17;;;;;;;0.50;0.15;;;17.30;59.10;;;16.17;44.92;99777.34;10230673;28;96805;-85
2022/05/29 08:12:21;;;;;;;2.33;0.20;;;17.40;59.10;;;16.28;42.26;99774.00;10251317;28;96695;-85
2022/05/29 08:17:30;;;;;;;0.15;0.13;;;17.50;57.90;;;16.41;42.35;99766.91;10231053;28;98291;-88
2022/05/29 08:22:33;;;;;;;0.20;0.20;;;17.60;58.00;;;16.53;41.62;99767.84;10250146;28;96559;-87
2022/05/29 08:33:01;;;;;;;0.60;0.20;;;17.80;56.00;;;16.66;40.00;99759.69;10248604;28;96644;-85
2022/05/29 08:38:06;;;;;;;0.00;0.00;;;17.90;55.20;;;16.68;39.47;99756.81;10248401;28;96660;-86
2022/05/29 08:43:27;;;;;;;0.00;0.00;;;18.00;54.50;;;16.71;39.18;99757.22;10234549;28;96551;-88
2022/05/29 08:48:31;;;;;;;0.00;0.00;;;18.00;54.30;;;16.84;39.96;99761.66;10263620;28;96613;-89
2022/05/29 08:53:51;;;;;;;0.00;0.00;;;18.10;54.50;;;17.00;40.33;99746.88;10266104;28;96938;-88
2022/05/29 08:59:09;;;;;;;0.20;0.20;;;18.10;54.40;;;17.03;38.48;99747.25;10247629;28;96585;-88
2022/05/29 09:04:33;;;;;;;0.45;0.20;;;18.30;53.50;;;16.95;39.03;99744.84;10226698;28;97365;-88
2022/05/29 09:09:55;;;;;;;0.38;0.13;;;18.30;53.30;;;17.04;39.03;99737.34;10229839;28;96626;-86
2022/05/29 09:15:20;;;;;;;0.00;0.00;;;18.30;53.30;;;17.11;39.95;99738.09;10255392;28;96765;-87
2022/05/29 09:20:34;;;;;;;0.00;0.00;;;18.40;53.90;;;17.13;39.14;99731.44;10247257;28;96517;-88
2022/05/29 09:25:42;;;;;;;0.80;0.63;;;18.40;53.50;;;17.07;39.06;99740.38;10280182;28;96646;-87
2022/05/29 09:30:45;;;;;;;0.90;0.20;;;18.30;53.20;;;17.08;39.21;99731.28;10245575;28;98561;-87
2022/05/29 09:36:13;;;;;;;0.10;0.10;;;18.40;53.30;;;17.08;39.03;99725.91;10235924;28;97107;-88
2022/05/29 09:41:28;;;;;;;1.88;0.82;;;18.30;53.00;;;17.06;38.73;99721.81;10239718;28;97079;-87
2022/05/29 09:46:37;;;;;;;0.10;0.10;;;18.40;52.90;;;17.11;39.22;99727.34;10237694;28;96849;-88
2022/05/29 09:51:46;;;;;;;0.05;0.05;;;18.40;53.40;;;17.21;39.41;99724.97;10225650;28;96558;-87
2022/05/29 09:56:49;;;;;;;0.10;0.00;;;18.50;53.50;;;17.28;39.58;99719.53;10268837;28;96731;-87
2022/05/29 10:02:02;;;;;;;0.00;0.00;;;18.50;53.30;;;17.37;39.33;99716.31;10229507;28;97266;-87
2022/05/29 10:07:41;;;;;;;0.52;0.10;;;18.60;53.30;;;17.43;38.41;99705.72;10242849;28;97092;-88
2022/05/29 10:12:45;;;;;;;0.17;0.10;;;18.70;52.90;;;17.50;38.61;99701.91;10245202;28;97381;-87
2022/05/29 10:17:48;;;;;;;0.20;0.20;;;18.80;52.70;;;17.58;36.69;99704.31;10253261;28;97229;-87
2022/05/29 10:22:54;;;;;;;0.20;0.00;;;18.80;51.70;;;17.61;36.45;99693.09;10250931;28;98321;-87
2022/05/29 10:28:15;;;;;;;2.00;0.10;;;18.90;51.20;;;17.55;36.95;99682.44;10254705;28;96922;-88
2022/05/29 10:33:22;;;;;;;0.00;0.00;;;18.90;51.10;;;17.63;36.90;99674.06;10233739;28;98001;-87
2022/05/29 10:38:29;;;;;;;0.10;0.10;;;18.90;51.20;;;17.73;37.43;99674.38;10237328;28;96864;-88
2022/05/29 10:43:39;;;;;;;0.40;0.08;;;19.00;51.40;;;17.79;36.31;99683.41;10240034;28;96691;-88
2022/05/29 10:49:28;;;;;;;0.32;0.10;;;19.10;50.70;;;17.84;36.11;99680.84;10233215;28;97791;-86
2022/05/29 10:54:55;;;;;;;0.00;0.00;;;19.10;50.30;;;18.03;35.92;99689.69;10249176;28;98113;-86
2022/05/29 11:00:19;;;;;;;0.00;0.00;;;19.20;50.00;;;18.13;35.97;99669.28;10239547;28;96644;-87
2022/05/29 11:05:29;;;;;;;0.00;0.00;;;19.30;50.10;;;18.08;33.56;99671.00;10230794;28;96707;-87
2022/05/29 11:10:55;;;;;;;0.10;0.00;;;19.30;48.50;;;18.07;34.10;99664.81;10240274;28;98333;-87
2022/05/29 11:16:36;;;;;;;0.00;0.00;;;19.40;48.60;;;18.14;35.83;99644.00;10256296;28;98402;-88
2022/05/29 11:22:42;;;;;;;0.10;0.10;;;19.40;49.40;;;18.23;35.90;99657.94;10250229;28;99210;-87
2022/05/29 11:28:36;;;;;;;0.30;0.10;;;19.50;49.70;;;18.45;35.87;99644.75;10248934;28;97319;-87
2022/05/29 11:33:55;;;;;;;0.20;0.17;;;19.70;50.00;;;18.48;35.92;99638.13;10238386;28;96794;-86
2022/05/29 11:39:25;;;;;;;0.13;0.05;;;19.80;49.60;;;18.57;35.66;99625.94;10251636;28;98548;-86
2022/05/29 11:44:45;;;;;;;0.43;0.43;;;19.80;49.50;;;18.49;35.92;99639.75;10248876;28;98386;-87
2022/05/29 11:55:34;;;;;;;0.28;0.15;;;19.80;49.30;;;18.66;34.94;99632.63;10261154;28;96810;-87
2022/05/29 12:00:59;;;;;;;0.00;0.00;;;19.90;49.40;;;18.80;35.21;99630.53;10248702;28;96596;-86
2022/05/29 12:06:11;;;;;;;0.50;0.30;;;20.00;49.10;;;19.05;35.95;99616.78;10226870;28;98386;-86
2022/05/29 12:11:30;;;;;;;0.63;0.20;;;20.20;49.70;;;19.21;35.69;99603.41;10256852;28;96475;-86
2022/05/29 12:16:38;;;;;;;0.15;0.03;;;20.40;49.40;;;19.16;34.35;99605.19;10247875;28;96808;-87
2022/05/29 12:21:51;;;;;;;0.00;0.00;;;20.40;48.70;;;18.98;35.38;99601.59;10213225;28;96468;-87
2022/05/29 12:26:59;;;;;;;0.30;0.20;;;20.30;49.00;;;18.83;35.80;99608.50;10226335;28;98035;-87
2022/05/29 12:32:19;;;;;;;0.00;0.00;;;20.10;49.30;;;18.70;35.26;99601.50;10262698;28;97048;-88
2022/05/29 12:38:12;;;;;;;0.52;0.13;;;20.00;49.10;;;18.57;35.69;99601.72;10259052;28;96843;-86
2022/05/29 12:43:24;;;;;;;0.03;0.03;;;19.90;49.40;;;18.46;35.97;99595.28;10263920;28;97150;-86
2022/05/29 12:49:41;;;;;;;0.03;0.00;;;19.80;49.40;;;18.41;36.46;99603.22;10269883;28;97503;-86
2022/05/29 12:55:04;;;;;;;0.20;0.20;;;19.70;49.80;;;18.35;36.42;99605.00;10240884;28;98560;-86
2022/05/29 13:00:41;;;;;;;0.10;0.10;;;19.70;49.90;;;18.31;36.67;99590.38;10264880;28;96713;-87
2022/05/29 13:06:06;;;;;;;0.77;0.43;;;19.60;50.10;;;18.12;36.60;99603.09;10280008;28;97660;-86
2022/05/29 13:11:14;;;;;;;0.10;0.10;;;19.50;50.40;;;18.05;37.11;99596.16;10264308;28;97363;-86
2022/05/29 13:16:29;;;;;;;0.00;0.00;;;19.40;50.40;;;18.00;37.08;99612.19;10235202;28;96616;-87
2022/05/29 13:21:50;;;;;;;0.10;0.10;;;19.30;50.40;;;17.89;37.21;99603.88;10268233;28;98276;-87
2022/05/29 13:27:16;;;;;;;0.25;0.25;;;19.20;50.60;;;17.70;37.42;99602.28;10255633;28;96745;-87
2022/05/29 13:32:29;;;;;;;0.00;0.00;;;19.00;50.80;;;17.53;37.98;99599.41;10246700;28;97589;-87
2022/05/29 13:37:32;;;;;;;0.28;0.10;;;18.90;51.00;;;17.46;38.32;99603.22;10247210;28;96574;-88
2022/05/29 13:42:50;;;;;;;0.38;0.30;;;18.80;51.30;;;17.45;38.52;99594.31;10269167;28;97933;-86
2022/05/29 13:48:27;;;;;;;0.13;0.10;;;18.70;51.50;;;17.42;38.76;99592.09;10255901;28;96871;-86
2022/05/29 13:53:42;;;;;;;0.10;0.10;;;18.70;51.80;;;17.38;38.49;99581.00;10259475;28;96477;-85
2022/05/29 14:04:56;;;;;;;0.10;0.08;;;18.60;51.80;;;17.33;38.78;99577.34;10254650;28;97483;-85
2022/05/29 14:10:28;;;;;;;0.00;0.00;;;18.60;51.40;;;17.31;38.40;99564.16;10212851;28;97208;-86
2022/05/29 14:15:33;;;;;;;0.00;0.00;;;18.60;51.40;;;17.36;38.78;99558.91;10206451;28;97229;-86
2022/05/29 14:21:07;;;;;;;0.10;0.08;;;18.60;51.40;;;17.33;38.73;99563.91;10227365;28;97064;-86
2022/05/29 14:27:21;;;;;;;0.30;0.17;;;18.60;51.40;;;17.26;38.75;99561.31;10258695;28;97396;-87
2022/05/29 14:33:14;;;;;;;0.08;0.00;;;18.60;51.50;;;17.15;39.06;99563.94;10185814;28;96720;-86
2022/05/29 14:39:00;;;;;;;0.08;0.08;;;18.50;51.60;;;16.98;38.48;99563.78;10241103;28;97051;-86
2022/05/29 14:44:21;;;;;;;0.00;0.00;;;18.40;51.40;;;16.89;38.96;99565.09;10246406;28;96547;-87
2022/05/29 14:49:45;;;;;;;1.20;1.00;;;18.30;51.60;;;16.81;39.08;99560.88;10269837;28;96949;-87
2022/05/29 14:54:52;;;;;;;0.32;0.20;;;18.20;51.60;;;16.75;39.04;99564.44;10243213;28;96894;-86
2022/05/29 14:59:59;;;;;;;0.45;0.45;;;18.10;51.40;;;16.73;40.01;99570.03;10249477;28;98212;-86
2022/05/29 15:05:14;;;;;;;0.15;0.10;;;18.10;52.40;;;16.71;40.97;99580.16;10248531;28;96738;-87
2022/05/29 15:10:34;;;;;;;0.17;0.00;;;18.00;53.00;;;16.49;44.67;99571.69;10233196;28;96628;-87
2022/05/29 15:15:59;;;;;;;0.17;0.17;;;17.90;55.80;;;15.95;46.13;99561.63;10254119;28;96539;-88
2022/05/29 15:26:31;;;;;;;0.10;0.05;;;17.00;61.10;;;15.15;49.35;99555.94;10214669;28;96587;-87
2022/05/29 15:31:35;;;;;;;0.55;0.13;;;16.60;61.80;;;14.94;52.36;99560.56;10227427;28;96732;-87
2022/05/29 15:37:08;;;;;;;0.00;0.00;;;16.30;63.80;;;14.82;55.74;99556.91;10250835;28;96612;-88
2022/05/29 15:42:27;;;;;;;0.93;0.10;;;16.20;67.10;;;14.72;56.79;99556.50;10250640;28;96682;-87
2022/05/29 15:47:34;;;;;;;0.00;0.00;;;16.10;66.90;;;14.56;56.60;99547.06;10253448;28;96618;-87
2022/05/29 15:53:30;;;;;;;2.60;0.45;;;16.00;67.70;;;14.45;58.34;99561.91;10268114;28;96738;-88
2022/05/29 15:58:57;;;;;;;0.43;0.20;;;15.90;70.00;;;14.38;59.74;99565.59;10254686;28;99086;-88
2022/05/29 16:04:01;;;;;;;2.58;0.85;;;15.80;71.20;;;14.31;61.35;99583.50;10282096;28;96810;-87
2022/05/29 16:09:11;;;;;;;0.50;0.37;;;15.70;72.40;;;14.19;62.15;99589.44;10320864;28;97324;-87
2022/05/29 16:14:38;;;;;;;0.00;0.00;;;15.60;71.80;;;14.07;63.99;99604.47;10300663;28;98174;-87
2022/05/29 16:19:55;;;;;;;0.00;0.00;;;15.50;77.30;;;13.91;66.39;99604.84;10255432;28;97266;-88
2022/05/29 16:25:19;;;;;;;0.27;0.13;;;15.30;80.80;;;13.72;68.70;99610.97;10250420;28;96746;-88
2022/05/29 16:30:38;;;;;;;0.07;0.00;;;15.10;81.70;;;13.62;69.96;99609.53;10248632;28;96762;-88
2022/05/29 16:35:43;;;;;;;0.10;0.10;;;15.00;82.60;;;13.56;70.80;99602.34;10201437;28;98422;-87
2022/05/29 16:52:26;;;;;;;0.40;0.30;;;14.80;85.70;;;13.20;73.10;99607.13;10251479;28;96710;-88
2022/05/29 16:57:33;;;;;;;0.10;0.10;;;14.60;87.80;;;13.02;74.31;99597.81;10233155;28;96580;-87
2022/05/29 17:03:04;;;;;;;0.03;0.03;;;14.50;89.20;;;12.93;75.40;99595.50;10226554;28;96701;-86
2022/05/29 17:08:22;;;;;;;0.17;0.17;;;14.40;91.70;;;12.85;76.09;99605.31;10236176;28;96534;-88
2022/05/29 17:13:27;;;;;;;0.03;0.03;;;14.30;93.80;;;12.77;76.26;99607.28;10245823;28;96650;-87
2022/05/29 17:18:30;;;;;;;0.10;0.10;;;14.20;94.80;;;12.74;76.74;99599.72;10261504;28;96697;-86
2022/05/29 17:24:00;;;;;;;0.00;0.00;;;14.10;96.30;;;12.62;75.92;99602.09;10240242;28;97092;-87
2022/05/29 17:29:49;;;;;;;0.20;0.10;;;14.00;96.60;;;12.53;75.86;99609.44;10264151;28;98329;-86
2022/05/29 17:35:06;;;;;;;0.20;0.10;;;13.90;97.40;;;12.42;75.79;99588.66;10236944;28;96561;-87
2022/05/29 17:40:24;;;;;;;1.37;0.47;;;13.80;97.70;;;12.35;75.94;99582.41;10224621;28;96559;-86
2022/05/29 17:45:27;;;;;;;0.00;0.00;;;13.70;98.60;;;12.26;76.00;99567.63;10198936;28;98366;-87
2022/05/29 17:50:46;;;;;;;1.23;1.07;;;13.70;98.70;;;12.23;76.08;99560.00;10232393;28;98538;-87
2022/05/29 17:55:49;;;;;;;0.40;0.33;;;13.60;99.90;;;12.21;76.05;99578.03;10232740;28;97072;-87
2022/05/29 18:00:52;;;;;;;0.50;0.50;;;13.60;99.90;;;12.16;75.75;99586.59;10226168;28;98456;-86
2022/05/29 18:06:00;;;;;;;0.00;0.00;;;13.60;99.90;;;12.15;75.82;99576.97;10243602;28;96676;-87
2022/05/29 18:11:10;;;;;;;0.33;0.30;;;13.50;99.90;;;12.13;76.53;99556.88;10268386;28;98546;-87
2022/05/29 18:16:13;;;;;;;0.17;0.07;;;13.40;99.90;;;12.14;76.69;99574.50;10233707;28;97310;-88
2022/05/29 18:21:17;;;;;;;0.10;0.10;;;13.40;99.90;;;12.13;76.23;99580.84;10248462;28;96862;-89
2022/05/29 18:26:33;;;;;;;0.30;0.30;;;13.40;99.90;;;12.11;76.67;99582.84;10253147;28;97329;-88
2022/05/29 18:31:36;;;;;;;0.10;0.00;;;13.40;99.90;;;12.10;77.37;99573.22;10232196;28;98456;-88
2022/05/29 18:36:39;;;;;;;0.20;0.20;;;13.40;99.90;;;12.07;77.55;99579.78;10267613;28;96614;-88
2022/05/29 18:41:42;;;;;;;0.20;0.17;;;13.30;99.90;;;12.05;77.45;99565.81;10244486;28;98757;-89
2022/05/29 18:46:46;;;;;;;0.30;0.20;;;13.30;99.90;;;12.03;77.73;99547.38;10209729;28;98474;-88
2022/05/29 18:51:49;;;;;;;0.53;0.40;;;13.30;99.90;;;11.99;77.66;99555.91;10240836;28;98314;-89
2022/05/29 18:56:52;;;;;;;0.50;0.30;;;13.20;99.90;;;11.92;78.10;99563.84;10216797;28;97518;-89
2022/05/29 19:01:56;;;;;;;0.10;0.10;;;13.20;99.90;;;11.81;78.44;99569.69;10248833;28;96857;-88
2022/05/29 19:07:00;;;;;;;0.50;0.50;;;13.10;99.90;;;11.74;78.65;99574.09;10239151;28;96656;-88
2022/05/29 19:12:06;;;;;;;0.00;0.00;;;13.00;99.90;;;11.71;78.69;99579.84;10255603;28;96571;-88
2022/05/29 19:22:31;;;;;;;0.00;0.00;;;12.90;99.90;;;11.62;78.55;99567.66;10269612;28;96968;-88
2022/05/29 19:27:35;;;;;;;0.10;0.10;;;12.80;99.90;;;11.56;78.83;99569.22;10252286;28;96753;-87
2022/05/29 19:32:41;;;;;;;0.23;0.10;;;12.80;99.90;;;11.55;79.68;99574.75;10248872;28;96751;-88
2022/05/29 19:37:44;;;;;;;0.07;0.07;;;12.80;99.90;;;11.51;79.56;99595.56;10248642;28;96609;-88
2022/05/29 19:42:48;;;;;;;0.83;0.43;;;12.70;99.90;;;11.49;79.71;99602.94;10239023;28;97300;-87
2022/05/29 19:47:52;;;;;;;0.10;0.10;;;12.70;99.90;;;11.42;79.91;99597.53;10236336;28;97107;-87
2022/05/29 19:52:58;;;;;;;0.60;0.33;;;12.60;99.90;;;11.35;79.96;99601.16;10244235;28;96622;-87
2022/05/29 19:58:01;;;;;;;0.00;0.00;;;12.50;99.90;;;11.26;80.58;99598.56;10256161;28;96869;-87
2022/05/29 20:03:04;;;;;;;0.03;0.03;;;12.40;99.90;;;11.24;80.52;99597.13;10242323;28;97490;-87
2022/05/29 20:08:07;;;;;;;0.07;0.07;;;12.40;99.90;;;11.22;80.63;99569.91;10264820;28;96602;-88
2022/05/29 20:13:12;;;;;;;0.00;0.00;;;12.40;99.90;;;11.19;80.44;99572.94;10256684;28;96704;-87
2022/05/29 20:18:21;;;;;;;0.27;0.17;;;12.30;99.90;;;11.18;80.38;99584.56;10255835;28;96661;-87
2022/05/29 20:23:23;;;;;;;0.03;0.00;;;12.30;99.90;;;11.16;80.13;99592.75;10266439;28;97037;-87
2022/05/29 20:28:27;;;;;;;0.10;0.10;;;12.40;99.90;;;11.17;79.65;99582.94;10227255;28;98210;-87
2022/05/29 20:33:30;;;;;;;0.00;0.00;;;12.40;99.90;;;11.19;79.11;99575.59;10250717;28;97064;-87
2022/05/29 20:38:35;;;;;;;0.40;0.23;;;12.40;99.90;;;11.20;78.41;99567.41;10261253;28;96535;-87
2022/05/29 20:43:39;;;;;;;0.10;0.10;;;12.40;99.90;;;11.15;77.91;99569.81;10254570;28;96692;-87
2022/05/29 20:48:42;;;;;;;0.10;0.00;;;12.40;99.90;;;11.11;77.29;99568.53;10258272;28;97591;-87
2022/05/29 20:53:45;;;;;;;0.57;0.30;;;12.30;99.90;;;11.07;77.04;99542.50;10254276;28;97201;-86
2022/05/29 20:58:49;;;;;;;0.00;0.00;;;12.30;99.90;;;11.02;77.11;99553.69;10233901;28;97240;-87
2022/05/29 21:03:53;;;;;;;1.03;0.27;;;12.20;99.90;;;10.97;77.33;99548.97;10265646;28;97027;-86
2022/05/29 21:08:56;;;;;;;0.07;0.03;;;12.10;99.90;;;10.92;77.08;99547.88;10247586;28;98078;-88
2022/05/29 21:14:02;;;;;;;0.43;0.30;;;12.10;99.90;;;10.88;77.16;99550.06;10239509;28;97075;-87
2022/05/29 21:19:08;;;;;;;0.63;0.47;;;12.00;99.90;;;10.84;77.24;99546.13;10237433;28;98239;-87
2022/05/29 21:24:12;;;;;;;0.10;0.10;;;12.00;99.90;;;10.86;76.82;99568.03;10272215;28;96606;-87
2022/05/29 21:29:17;;;;;;;0.20;0.20;;;12.00;99.90;;;10.87;76.16;99556.41;10258775;28;96593;-87
2022/05/29 21:34:23;;;;;;;0.00;0.00;;;12.10;99.90;;;10.91;75.87;99551.50;10246596;28;98406;-87
2022/05/29 21:39:28;;;;;;;0.00;0.00;;;12.20;99.90;;;10.90;75.14;99557.84;10277147;28;97485;-87
2022/05/29 21:44:31;;;;;;;0.10;0.10;;;12.10;99.90;;;10.85;74.53;99573.50;10247338;28;96748;-87
2022/05/29 21:49:35;;;;;;;0.00;0.00;;;12.10;99.90;;;10.82;73.86;99563.28;10238169;28;96733;-86
2022/05/29 21:54:38;;;;;;;0.47;0.30;;;12.10;99.90;;;10.83;73.23;99555.09;10267890;28;97756;-86
2022/05/29 21:59:41;;;;;;;0.30;0.20;;;12.00;99.90;;;10.83;73.10;99565.72;10237377;28;96613;-87
2022/05/29 22:04:44;;;;;;;0.00;0.00;;;12.00;99.90;;;10.89;73.13;99564.19;10249111;28;97244;-87
2022/05/29 22:09:47;;;;;;;1.50;0.10;;;12.10;99.90;;;10.92;73.28;99556.66;10265995;28;96826;-87
2022/05/29 22:14:56;;;;;;;0.00;0.00;;;12.10;99.90;;;10.98;73.54;99563.06;10236992;28;98115;-86
2022/05/29 22:19:59;;;;;;;1.00;0.27;;;12.20;99.90;;;11.04;73.63;99564.16;10252740;28;96780;-87
2022/05/29 22:25:03;;;;;;;0.00;0.00;;;12.20;99.90;;;11.08;73.55;99560.94;10245775;28;97920;-87
2022/05/29 22:30:08;;;;;;;0.03;0.03;;;12.30;99.90;;;11.10;74.08;99555.44;10249376;28;97371;-86
2022/05/29 22:35:15;;;;;;;0.60;0.20;;;12.30;99.90;;;11.15;74.62;99553.03;10253243;28;97481;-87
2022/05/29 22:40:19;;;;;;;0.23;0.23;;;12.30;99.90;;;11.20;74.78;99567.41;10252794;28;96683;-87
2022/05/29 22:45:23;;;;;;;0.00;0.00;;;12.40;99.90;;;11.24;75.38;99560.72;10246900;28;98729;-87